createdAt,value
2017-08-02T00:02:09.344Z,15.00
2017-08-02T00:04:43.397Z,15.43
2017-08-02T00:07:17.645Z,16.10
2017-08-02T00:09:51.712Z,16.27
2017-08-02T00:12:25.797Z,15.20
2017-08-02T00:14:59.973Z,15.83
2017-08-02T00:17:34.069Z,14.87
2017-08-02T00:20:08.153Z,14.93
2017-08-02T00:22:42.393Z,17.37
2017-08-02T00:25:16.576Z,17.40
2017-08-02T00:27:50.586Z,16.60
2017-08-02T00:30:24.717Z,15.70
2017-08-02T00:32:58.878Z,15.90
2017-08-02T00:35:32.926Z,15.90
2017-08-02T00:38:07.048Z,15.20
2017-08-02T00:40:41.161Z,15.87
2017-08-02T00:43:15.360Z,16.33
2017-08-02T00:45:49.521Z,15.77
2017-08-02T00:48:23.553Z,15.90
2017-08-02T00:50:57.617Z,15.90
2017-08-02T00:53:31.778Z,14.90
2017-08-02T00:56:05.912Z,16.43
2017-08-02T00:58:40.025Z,15.67
2017-08-02T01:01:14.024Z,14.67
2017-08-02T01:03:48.177Z,15.13
2017-08-02T01:06:22.188Z,15.60
2017-08-02T01:08:56.239Z,15.90
2017-08-02T01:11:30.420Z,17.60
2017-08-02T01:14:04.556Z,17.90
2017-08-02T01:16:38.601Z,18.77
2017-08-02T01:19:12.615Z,17.70
2017-08-02T01:21:46.830Z,16.53
2017-08-02T01:24:21.020Z,18.37
2017-08-02T01:26:55.239Z,17.83
2017-08-02T01:29:29.300Z,18.10
2017-08-02T01:32:03.312Z,17.63
2017-08-02T01:34:37.373Z,16.60
2017-08-02T01:37:11.341Z,15.97
2017-08-02T01:39:45.540Z,16.83
2017-08-02T01:42:19.885Z,16.60
2017-08-02T01:44:54.085Z,16.30
2017-08-02T01:47:28.162Z,18.17
2017-08-02T01:50:02.316Z,17.53
2017-08-02T01:52:36.569Z,18.60
2017-08-02T01:55:10.664Z,16.17
2017-08-02T01:57:44.728Z,17.30
2017-08-02T02:00:28.130Z,16.47
2017-08-02T02:03:02.248Z,16.43
2017-08-02T02:05:36.321Z,17.20
2017-08-02T02:08:10.360Z,17.07
2017-08-02T02:10:44.539Z,20.37
2017-08-02T02:13:18.739Z,19.40
2017-08-02T02:15:52.938Z,19.90
2017-08-02T02:18:26.922Z,19.60
2017-08-02T02:21:01.057Z,19.53
2017-08-02T02:23:35.209Z,19.73
2017-08-02T02:26:09.456Z,19.20
2017-08-02T02:28:43.453Z,18.97
2017-08-02T02:31:17.574Z,19.33
2017-08-02T02:33:51.772Z,19.73
2017-08-02T02:36:25.820Z,19.33
2017-08-02T02:38:59.945Z,18.50
2017-08-02T02:41:34.338Z,19.07
2017-08-02T02:44:08.507Z,19.10
2017-08-02T02:46:42.535Z,19.03
2017-08-02T02:49:16.890Z,18.70
2017-08-02T02:51:51.019Z,18.40
2017-08-02T02:54:25.136Z,20.13
2017-08-02T02:56:59.515Z,19.20
2017-08-02T02:59:33.546Z,20.50
2017-08-02T03:02:07.742Z,20.10
2017-08-02T03:04:41.732Z,20.00
2017-08-02T03:07:15.981Z,18.97
2017-08-02T03:09:50.039Z,20.87
2017-08-02T03:12:24.058Z,19.03
2017-08-02T03:14:58.270Z,19.30
2017-08-02T03:17:32.283Z,19.03
2017-08-02T03:20:06.444Z,19.27
2017-08-02T03:22:40.712Z,18.20
2017-08-02T03:25:14.813Z,18.87
2017-08-02T03:27:48.966Z,18.57
2017-08-02T03:30:22.999Z,18.00
2017-08-02T03:32:57.132Z,18.27
2017-08-02T03:35:31.135Z,18.10
2017-08-02T03:38:05.142Z,17.80
2017-08-02T03:40:39.224Z,16.67
2017-08-02T03:43:13.416Z,16.67
2017-08-02T03:45:47.578Z,16.00
2017-08-02T03:48:21.782Z,16.30
2017-08-02T03:50:56.009Z,16.37
2017-08-02T03:53:30.126Z,14.80
2017-08-02T03:56:04.305Z,13.83
2017-08-02T03:58:38.318Z,15.63
2017-08-02T04:01:12.673Z,12.53
2017-08-02T04:03:46.749Z,11.33
2017-08-02T04:06:20.880Z,11.87
2017-08-02T04:08:54.941Z,12.03
2017-08-02T04:11:29.109Z,13.63
2017-08-02T04:14:03.296Z,12.00
2017-08-02T04:16:37.577Z,11.03
2017-08-02T04:19:11.781Z,14.17
2017-08-02T04:21:45.848Z,11.47
2017-08-02T04:24:19.879Z,10.37
2017-08-02T04:26:54.117Z,15.53
2017-08-02T04:29:28.233Z,13.43
2017-08-02T04:32:02.455Z,21.70
2017-08-02T04:34:36.715Z,11.40
2017-08-02T04:37:10.865Z,14.10
2017-08-02T04:39:45.036Z,13.23
2017-08-02T04:42:19.088Z,10.50
2017-08-02T04:44:53.289Z,13.13
2017-08-02T04:47:27.360Z,11.40
2017-08-02T04:50:01.500Z,12.30
2017-08-02T04:52:35.956Z,10.90
2017-08-02T04:55:09.933Z,10.93
2017-08-02T04:57:44.019Z,11.80
2017-08-02T05:00:18.276Z,12.13
2017-08-02T05:02:52.453Z,11.43
2017-08-02T05:05:26.517Z,10.93
2017-08-02T05:08:00.516Z,12.50
2017-08-02T05:10:34.656Z,11.10
2017-08-02T05:13:08.802Z,12.50
2017-08-02T05:15:42.842Z,11.53
2017-08-02T05:18:16.896Z,29.07
2017-08-02T05:20:51.063Z,12.00
2017-08-02T05:23:25.329Z,11.67
2017-08-02T05:25:59.464Z,11.30
2017-08-02T05:28:33.527Z,11.37
2017-08-02T05:31:07.521Z,13.70
2017-08-02T05:33:41.581Z,18.23
2017-08-02T05:36:15.788Z,11.63
2017-08-02T05:38:49.849Z,11.73
2017-08-02T05:41:23.917Z,12.00
2017-08-02T05:43:58.100Z,13.33
2017-08-02T05:46:32.209Z,10.60
2017-08-02T05:49:06.448Z,10.70
2017-08-02T05:51:40.503Z,11.37
2017-08-02T05:54:14.916Z,10.63
2017-08-02T05:56:49.143Z,13.23
2017-08-02T05:59:23.351Z,10.77
2017-08-02T06:01:57.652Z,11.00
2017-08-02T06:04:31.685Z,10.10
2017-08-02T06:07:05.929Z,10.30
2017-08-02T06:09:40.182Z,10.00
2017-08-02T06:12:14.634Z,11.80
2017-08-02T06:14:48.849Z,10.70
2017-08-02T06:17:22.936Z,14.77
2017-08-02T06:19:57.280Z,12.00
2017-08-02T06:22:31.517Z,9.80
2017-08-02T06:25:05.659Z,9.83
2017-08-02T06:27:39.760Z,8.27
2017-08-02T06:30:14.044Z,8.77
2017-08-02T06:32:48.284Z,9.30
2017-08-02T06:35:22.476Z,8.40
2017-08-02T06:37:56.557Z,9.07
2017-08-02T06:40:30.685Z,9.23
2017-08-02T06:43:04.861Z,8.73
2017-08-02T06:45:39.044Z,8.50
2017-08-02T06:48:17.785Z,8.43
2017-08-02T06:50:51.976Z,8.43
2017-08-02T06:53:26.172Z,9.10
2017-08-02T06:56:00.270Z,7.97
2017-08-02T06:58:34.364Z,8.40
2017-08-02T07:01:08.592Z,8.80
2017-08-02T07:03:42.737Z,9.50
2017-08-02T07:06:17.077Z,9.30
2017-08-02T07:08:51.148Z,9.03
2017-08-02T07:11:25.164Z,8.80
2017-08-02T07:13:59.405Z,11.70
2017-08-02T07:16:33.508Z,9.23
2017-08-02T07:19:07.748Z,11.33
2017-08-02T07:21:41.833Z,9.50
2017-08-02T07:24:15.941Z,10.77
2017-08-02T07:26:50.206Z,8.70
2017-08-02T07:29:24.373Z,8.77
2017-08-02T07:31:58.692Z,9.60
2017-08-02T07:34:32.724Z,8.67
2017-08-02T07:37:06.971Z,9.00
2017-08-02T07:39:41.229Z,8.10
2017-08-02T07:42:15.477Z,8.50
2017-08-02T07:44:49.636Z,8.30
2017-08-02T07:47:23.849Z,9.23
2017-08-02T07:49:57.997Z,8.93
2017-08-02T07:52:32.243Z,8.13
2017-08-02T07:55:06.412Z,8.60
2017-08-02T07:57:40.485Z,8.53
2017-08-02T08:00:14.788Z,8.43
2017-08-02T08:02:48.888Z,11.77
2017-08-02T08:05:23.093Z,11.53
2017-08-02T08:07:57.189Z,8.60
2017-08-02T08:10:31.447Z,9.53
2017-08-02T08:13:05.636Z,8.20
2017-08-02T08:15:39.717Z,9.27
2017-08-02T08:18:14.022Z,9.20
2017-08-02T08:20:48.112Z,8.43
2017-08-02T08:23:22.281Z,8.37
2017-08-02T08:25:56.529Z,9.53
2017-08-02T08:28:30.610Z,7.73
2017-08-02T08:31:04.864Z,7.97
2017-08-02T08:33:38.933Z,8.10
2017-08-02T08:36:13.129Z,7.63
2017-08-02T08:38:47.453Z,8.07
2017-08-02T08:41:21.741Z,8.00
2017-08-02T08:43:56.237Z,7.97
2017-08-02T08:46:30.346Z,9.77
2017-08-02T08:49:04.619Z,7.90
2017-08-02T08:51:39.889Z,7.90
2017-08-02T08:54:14.094Z,7.77
2017-08-02T08:56:48.185Z,8.27
2017-08-02T08:59:22.534Z,7.87
2017-08-02T09:01:56.764Z,8.57
2017-08-02T09:04:30.854Z,7.60
2017-08-02T09:07:05.061Z,8.07
2017-08-02T09:09:39.252Z,7.70
2017-08-02T09:12:13.516Z,7.73
2017-08-02T09:14:47.556Z,7.53
2017-08-02T09:17:21.705Z,7.40
2017-08-02T09:19:55.966Z,7.40
2017-08-02T09:22:30.167Z,7.13
2017-08-02T09:25:04.345Z,8.67
2017-08-02T09:27:38.352Z,7.57
2017-08-02T09:30:12.484Z,7.60
2017-08-02T09:32:46.516Z,7.27
2017-08-02T09:35:20.655Z,8.03
2017-08-02T09:37:54.779Z,7.00
2017-08-02T09:40:28.830Z,7.47
2017-08-02T09:43:03.036Z,7.93
2017-08-02T09:45:37.075Z,7.57
2017-08-02T09:48:11.243Z,7.70
2017-08-02T09:50:45.236Z,8.23
2017-08-02T09:53:19.375Z,7.70
2017-08-02T09:55:53.466Z,8.00
2017-08-02T09:58:27.498Z,7.50
2017-08-02T10:01:01.675Z,7.63
2017-08-02T10:03:35.688Z,7.60
2017-08-02T10:06:09.840Z,8.50
2017-08-02T10:08:43.965Z,7.80
2017-08-02T10:11:18.105Z,7.00
2017-08-02T10:13:52.229Z,6.67
2017-08-02T10:16:26.295Z,6.90
2017-08-02T10:19:00.437Z,7.50
2017-08-02T10:21:34.481Z,6.33
2017-08-02T10:24:08.567Z,7.50
2017-08-02T10:26:42.606Z,7.50
2017-08-02T10:29:16.743Z,7.33
2017-08-02T10:31:50.881Z,6.27
2017-08-02T10:34:24.886Z,8.53
2017-08-02T10:36:59.044Z,6.53
2017-08-02T10:39:33.207Z,6.70
2017-08-02T10:42:07.204Z,7.47
2017-08-02T10:44:41.232Z,7.07
2017-08-02T10:47:15.432Z,6.40
2017-08-02T10:49:49.589Z,7.53
2017-08-02T10:52:23.629Z,6.13
2017-08-02T10:54:57.821Z,6.90
2017-08-02T10:57:31.841Z,7.40
2017-08-02T11:00:06.036Z,7.17
2017-08-02T11:05:55.411Z,7.70
2017-08-02T11:08:29.569Z,6.53
2017-08-02T11:11:03.733Z,6.70
2017-08-02T11:13:37.809Z,6.65
2017-08-02T11:19:26.799Z,7.10
2017-08-02T11:22:01.033Z,6.78
2017-08-02T11:24:35.269Z,6.82
2017-08-02T11:27:09.455Z,6.97
2017-08-02T11:29:43.544Z,7.12
2017-08-02T11:35:32.260Z,7.30
2017-08-02T11:38:06.284Z,7.10
2017-08-02T11:40:40.352Z,7.85
2017-08-02T11:43:14.669Z,7.53
2017-08-02T11:45:48.718Z,6.95
2017-08-02T11:48:22.852Z,9.15
2017-08-02T11:50:57.091Z,7.78
2017-08-02T11:56:45.875Z,8.18
2017-08-02T11:59:20.120Z,7.67
2017-08-02T12:01:54.293Z,7.90
2017-08-02T12:04:28.385Z,8.07
2017-08-02T12:07:02.567Z,7.77
2017-08-02T12:09:36.685Z,6.83
2017-08-02T12:12:10.830Z,7.00
2017-08-02T12:14:44.915Z,6.30
2017-08-02T12:17:19.143Z,6.15
2017-08-02T12:19:53.355Z,6.80
2017-08-02T12:22:27.559Z,5.90
2017-08-02T12:25:01.716Z,7.45
2017-08-02T12:27:35.733Z,7.80
2017-08-02T12:30:09.886Z,7.30
2017-08-02T12:32:43.884Z,7.87
2017-08-02T12:35:18.086Z,7.90
2017-08-02T12:37:52.111Z,7.30
2017-08-02T12:40:26.123Z,7.47
2017-08-02T12:43:00.297Z,7.67
2017-08-02T12:45:34.647Z,8.03
2017-08-02T12:48:08.827Z,8.13
2017-08-02T12:50:43.052Z,7.70
2017-08-02T12:53:17.056Z,8.07
2017-08-02T12:55:51.217Z,7.27
2017-08-02T12:58:25.224Z,8.47
2017-08-02T13:00:59.410Z,7.63
2017-08-02T13:03:33.478Z,8.70
2017-08-02T13:06:07.722Z,8.43
2017-08-02T13:08:41.959Z,7.90
2017-08-02T13:11:16.087Z,7.27
2017-08-02T13:13:50.409Z,7.83
2017-08-02T13:16:24.644Z,8.70
2017-08-02T13:18:58.772Z,8.33
2017-08-02T13:24:48.003Z,7.70
2017-08-02T13:27:22.208Z,7.90
2017-08-02T13:29:56.361Z,7.60
2017-08-02T13:35:45.672Z,8.07
2017-08-02T13:38:19.713Z,7.47
2017-08-02T13:40:53.840Z,7.53
2017-08-02T13:43:27.998Z,8.47
2017-08-02T13:46:02.414Z,8.30
2017-08-02T13:48:36.429Z,8.70
2017-08-02T13:51:10.672Z,8.82
2017-08-02T13:53:44.795Z,9.45
2017-08-02T13:56:19.066Z,8.57
2017-08-02T13:58:53.281Z,9.07
2017-08-02T14:01:27.304Z,9.32
2017-08-02T14:04:01.504Z,9.77
2017-08-02T14:06:35.587Z,9.73
2017-08-02T14:09:09.659Z,9.48
2017-08-02T14:11:43.725Z,9.15
2017-08-02T14:14:17.992Z,9.95
2017-08-02T14:16:52.347Z,10.23
2017-08-02T14:19:26.413Z,9.35
2017-08-02T14:22:00.600Z,9.65
2017-08-02T14:24:34.791Z,9.05
2017-08-02T14:27:08.995Z,8.80
2017-08-02T14:29:42.984Z,9.02
2017-08-02T14:32:16.992Z,9.20
2017-08-02T14:34:51.161Z,10.27
2017-08-02T14:37:25.297Z,9.55
2017-08-02T14:39:59.459Z,9.05
2017-08-02T14:42:33.579Z,9.35
2017-08-02T14:45:07.779Z,8.98
2017-08-02T14:47:41.844Z,8.68
2017-08-02T14:50:16.185Z,8.68
2017-08-02T14:52:50.241Z,8.05
2017-08-02T14:55:24.373Z,8.55
2017-08-02T14:57:58.511Z,8.00
2017-08-02T15:00:32.878Z,7.67
2017-08-02T15:03:07.095Z,7.83
2017-08-02T15:05:41.341Z,7.50
2017-08-02T15:11:30.097Z,7.00
2017-08-02T15:14:04.284Z,6.73
2017-08-02T15:16:38.414Z,6.97
2017-08-02T15:19:12.520Z,6.90
2017-08-02T15:21:46.507Z,6.70
2017-08-02T15:24:20.668Z,6.67
2017-08-02T15:30:09.448Z,6.93
2017-08-02T15:35:58.434Z,7.47
2017-08-02T15:38:32.615Z,6.87
2017-08-02T15:41:06.789Z,6.53
2017-08-02T15:43:40.998Z,6.40
2017-08-02T15:46:15.225Z,6.77
2017-08-02T15:48:49.352Z,6.50
2017-08-02T15:51:23.636Z,6.23
2017-08-02T15:53:57.786Z,8.03
2017-08-02T15:56:31.935Z,6.10
2017-08-02T15:59:06.161Z,6.40
2017-08-02T16:01:40.180Z,8.13
2017-08-02T16:04:14.300Z,6.40
2017-08-02T16:06:48.414Z,6.43
2017-08-02T16:09:22.553Z,6.37
2017-08-02T16:11:56.712Z,6.80
2017-08-02T16:14:30.804Z,7.17
2017-08-02T16:17:04.936Z,6.43
2017-08-02T16:19:39.093Z,5.93
2017-08-02T16:22:13.316Z,7.53
2017-08-02T16:24:47.513Z,7.17
2017-08-02T16:27:21.841Z,7.60
2017-08-02T16:29:55.975Z,7.10
2017-08-02T16:32:30.004Z,6.13
2017-08-02T16:35:04.147Z,6.87
2017-08-02T16:37:38.348Z,8.73
2017-08-02T16:40:12.540Z,6.10
2017-08-02T16:42:46.551Z,6.10
2017-08-02T16:45:20.746Z,7.33
2017-08-02T16:47:54.922Z,6.77
2017-08-02T16:50:29.756Z,6.87
2017-08-02T16:53:04.032Z,6.37
2017-08-02T16:55:38.169Z,13.50
2017-08-02T16:58:12.464Z,11.43
2017-08-02T17:00:46.899Z,13.00
2017-08-02T17:03:21.085Z,8.37
2017-08-02T17:05:55.464Z,26.97
2017-08-02T17:08:29.732Z,8.90
2017-08-02T17:11:04.021Z,12.00
2017-08-02T17:13:38.316Z,8.67
2017-08-02T17:16:12.545Z,8.20
2017-08-02T17:18:46.707Z,8.33
2017-08-02T17:21:20.907Z,8.10
2017-08-02T17:27:10.385Z,8.60
2017-08-02T17:29:44.459Z,7.43
2017-08-02T17:35:33.606Z,7.07
2017-08-02T17:38:07.844Z,10.40
2017-08-02T17:40:42.147Z,7.63
2017-08-02T17:43:16.289Z,9.30
2017-08-02T17:45:50.476Z,6.87
2017-08-02T17:48:24.545Z,9.57
2017-08-02T17:50:58.744Z,9.73
2017-08-02T17:53:33.031Z,5.70
2017-08-02T17:59:22.554Z,6.87
2017-08-02T18:01:56.790Z,10.30
2017-08-02T18:04:30.809Z,8.87
2017-08-02T18:07:05.088Z,8.40
2017-08-02T18:09:39.317Z,8.23
2017-08-02T18:15:28.522Z,6.27
2017-08-02T18:18:02.775Z,5.87
2017-08-02T18:20:36.918Z,6.50
2017-08-02T18:23:11.141Z,8.70
2017-08-02T18:25:45.247Z,5.77
2017-08-02T18:28:19.427Z,6.30
2017-08-02T18:30:53.717Z,5.90
2017-08-02T18:33:27.752Z,5.90
2017-08-02T18:39:17.055Z,6.13
2017-08-02T18:41:51.136Z,6.93
2017-08-02T18:44:25.248Z,7.20
2017-08-02T18:46:59.451Z,13.27
2017-08-02T18:49:33.601Z,9.43
2017-08-02T18:55:22.353Z,5.63
2017-08-02T18:57:56.477Z,6.17
2017-08-02T19:00:31.214Z,6.40
2017-08-02T19:03:05.306Z,6.47
2017-08-02T19:05:39.516Z,6.47
2017-08-02T19:08:13.785Z,6.87
2017-08-02T19:14:02.629Z,6.50
2017-08-02T19:16:36.669Z,6.90
2017-08-02T19:19:10.963Z,7.03
2017-08-02T19:21:45.024Z,6.50
2017-08-02T19:24:19.271Z,6.50
2017-08-02T19:26:53.579Z,6.97
2017-08-02T19:29:27.692Z,8.20
2017-08-02T19:35:17.487Z,8.37
2017-08-02T19:37:51.686Z,6.23
2017-08-02T19:40:25.926Z,7.07
2017-08-02T19:46:14.811Z,9.40
2017-08-02T19:48:49.164Z,6.23
2017-08-02T19:51:23.381Z,7.40
2017-08-02T19:57:12.141Z,7.20
2017-08-02T19:59:48.016Z,7.50
2017-08-02T20:02:22.212Z,7.50
2017-08-02T20:04:58.920Z,7.80
2017-08-02T20:07:34.356Z,6.70
2017-08-02T20:11:39.176Z,9.57
2017-08-02T20:14:13.248Z,6.20
2017-08-02T20:16:47.817Z,8.80
2017-08-02T20:19:22.110Z,8.60
2017-08-02T20:21:56.209Z,8.43
2017-08-02T20:24:30.479Z,7.20
2017-08-02T20:27:04.781Z,7.47
2017-08-02T20:29:39.204Z,7.33
2017-08-02T20:35:27.904Z,8.27
2017-08-02T20:38:02.120Z,6.40
2017-08-02T20:40:36.274Z,7.80
2017-08-02T20:43:10.483Z,7.20
2017-08-02T20:45:44.755Z,7.70
2017-08-02T20:48:18.900Z,6.60
2017-08-02T20:50:54.317Z,8.63
2017-08-02T20:53:28.950Z,7.93
2017-08-02T20:56:03.211Z,8.90
2017-08-02T20:58:37.447Z,8.07
2017-08-02T21:01:11.768Z,8.60
2017-08-02T21:03:45.893Z,7.00
2017-08-02T21:06:20.013Z,5.93
2017-08-02T21:08:54.233Z,6.00
2017-08-02T21:11:28.373Z,6.00
2017-08-02T21:14:02.499Z,6.43
2017-08-02T21:16:36.810Z,6.30
2017-08-02T21:19:11.078Z,7.10
2017-08-02T21:21:45.204Z,6.37
2017-08-02T21:24:19.237Z,6.87
2017-08-02T21:26:53.429Z,8.30
2017-08-02T21:29:27.666Z,6.47
2017-08-02T21:35:16.859Z,6.93
2017-08-02T21:37:51.634Z,9.20
2017-08-02T21:40:25.852Z,8.77
2017-08-02T21:43:00.191Z,8.57
2017-08-02T21:45:34.492Z,5.90
2017-08-02T21:51:23.252Z,7.50
2017-08-02T21:53:57.500Z,5.40
2017-08-02T21:56:31.732Z,7.83
2017-08-02T21:59:05.817Z,6.00
2017-08-02T22:01:39.949Z,5.73
2017-08-02T22:04:14.053Z,5.97
2017-08-02T22:10:03.069Z,8.27
2017-08-02T22:15:52.649Z,7.90
2017-08-02T22:18:26.891Z,6.67
2017-08-02T22:21:01.053Z,6.83
2017-08-02T22:23:35.270Z,4.50
2017-08-02T22:26:09.301Z,7.57
2017-08-02T22:28:43.577Z,4.90
2017-08-02T22:31:24.925Z,7.17
2017-08-02T22:33:59.114Z,5.57
2017-08-02T22:36:33.380Z,5.27
2017-08-02T22:39:07.412Z,10.23
2017-08-02T22:41:41.577Z,6.67
2017-08-02T22:44:15.781Z,8.17
2017-08-02T22:46:49.860Z,7.97
2017-08-02T22:55:53.582Z,6.13
2017-08-02T22:58:28.600Z,4.60
2017-08-02T23:01:02.767Z,5.00
2017-08-02T23:03:36.945Z,5.50
2017-08-02T23:06:11.059Z,7.73
2017-08-02T23:08:45.057Z,5.23
2017-08-02T23:11:19.065Z,5.60
2017-08-02T23:13:53.170Z,5.37
2017-08-02T23:16:27.417Z,6.80
2017-08-02T23:19:01.594Z,4.27
2017-08-02T23:21:35.818Z,6.27
2017-08-02T23:24:09.968Z,5.30
2017-08-02T23:26:44.228Z,5.13
2017-08-02T23:29:18.287Z,5.10
2017-08-02T23:31:52.505Z,4.47
2017-08-02T23:34:26.588Z,5.17
2017-08-02T23:37:00.695Z,5.40
2017-08-02T23:39:34.698Z,4.90
2017-08-02T23:42:08.848Z,5.03
2017-08-02T23:44:43.006Z,4.50
2017-08-02T23:47:17.109Z,4.90
2017-08-02T23:49:51.256Z,5.30
2017-08-02T23:52:25.296Z,4.87
2017-08-02T23:54:59.345Z,4.70
2017-08-02T23:57:33.350Z,5.33
